San Diego International Airport San Diego US
ICAO: KSAN
IATA: SAN
Category: Large
Scheduled Services: Yes

Elevation: 17 ft
TransAlt. 18000 ft.

Airport Communications:
SOCAL APP/DEP:119.6
ATIS:134.8
CLNC DEL:125.9
GND:123.9
CG:157.15
CG:898.4
LINDBERGH TWR:118.3
UNICOM:122.95

KSAN Zoom In..

Runways:

(A) RW 09 length 9400 ft width 200 ft
ILS 111.55 / hdg 92

(B) RW 27 length 9400 ft width 200 ft
LOC 110.90 / hdg 272

Location; KSAN
Day. 04 / Time. 16.51 Zulu
* Altimeter: 30.22
* Temperature: 15° c. 59°f.
* Wind from: 000° Speed 00 kn.
Dewpoint: -07° c.
Visibility: 10 Statute Miles.
Clouds: Few 2000 ft.

KSAN 041651Z 00000KT 10SM FEW200 15/M07 A3022 RMK AO2 SLP232 T01501067 $

Going to: --> -->


Wind - Calm.

 
 
jpsmedia worldairports.se 2020   terms of use